sensor_id;sensor_type;location;lat;lon;timestamp;pressure;altitude;pressure_sealevel;temperature;humidity
31225;BME280;17847;31.524;74.366;2022-12-29T00:00:18;99287.22;;;13.52;78.68
31225;BME280;17847;31.524;74.366;2022-12-29T00:03:03;99278.50;;;13.57;77.68
31225;BME280;17847;31.524;74.366;2022-12-29T00:05:56;99277.34;;;13.46;77.81
31225;BME280;17847;31.524;74.366;2022-12-29T00:08:39;99259.56;;;13.38;78.25
31225;BME280;17847;31.524;74.366;2022-12-29T00:11:27;99266.72;;;13.51;78.51
31225;BME280;17847;31.524;74.366;2022-12-29T00:14:11;99274.81;;;13.51;78.38
31225;BME280;17847;31.524;74.366;2022-12-29T00:17:17;99273.88;;;13.64;78.08
31225;BME280;17847;31.524;74.366;2022-12-29T00:20:00;99271.06;;;13.52;78.23
31225;BME280;17847;31.524;74.366;2022-12-29T00:23:08;99280.22;;;13.51;77.76
31225;BME280;17847;31.524;74.366;2022-12-29T00:26:18;99292.44;;;13.47;78.09
31225;BME280;17847;31.524;74.366;2022-12-29T00:29:25;99311.09;;;13.17;79.32
31225;BME280;17847;31.524;74.366;2022-12-29T00:32:26;99352.94;;;13.19;79.44
31225;BME280;17847;31.524;74.366;2022-12-29T00:35:52;99351.25;;;12.80;80.71
31225;BME280;17847;31.524;74.366;2022-12-29T00:38:31;99353.81;;;13.06;79.88
31225;BME280;17847;31.524;74.366;2022-12-29T00:41:46;99342.38;;;13.56;78.47
31225;BME280;17847;31.524;74.366;2022-12-29T00:44:47;99327.16;;;13.68;78.09
31225;BME280;17847;31.524;74.366;2022-12-29T00:47:35;99319.00;;;13.50;77.80
31225;BME280;17847;31.524;74.366;2022-12-29T00:50:18;99305.81;;;13.35;78.39
31225;BME280;17847;31.524;74.366;2022-12-29T00:53:06;99295.94;;;13.79;77.04
31225;BME280;17847;31.524;74.366;2022-12-29T00:55:50;99281.13;;;13.88;76.70
31225;BME280;17847;31.524;74.366;2022-12-29T00:58:46;99288.06;;;13.52;77.02
31225;BME280;17847;31.524;74.366;2022-12-29T01:01:29;99313.53;;;13.25;78.20
31225;BME280;17847;31.524;74.366;2022-12-29T01:04:22;99327.94;;;13.05;79.27
31225;BME280;17847;31.524;74.366;2022-12-29T01:07:07;99326.59;;;12.83;80.17
31225;BME280;17847;31.524;74.366;2022-12-29T01:10:02;99323.38;;;13.06;79.90
31225;BME280;17847;31.524;74.366;2022-12-29T01:12:52;99309.81;;;13.19;79.19
31225;BME280;17847;31.524;74.366;2022-12-29T01:15:52;99316.19;;;13.31;79.15
31225;BME280;17847;31.524;74.366;2022-12-29T01:18:34;99312.47;;;13.64;78.06
31225;BME280;17847;31.524;74.366;2022-12-29T01:21:23;99307.78;;;13.53;77.40
31225;BME280;17847;31.524;74.366;2022-12-29T01:23:59;99303.13;;;13.35;77.71
31225;BME280;17847;31.524;74.366;2022-12-29T01:26:54;99304.69;;;13.49;78.78
31225;BME280;17847;31.524;74.366;2022-12-29T01:29:36;99292.34;;;13.60;77.61
31225;BME280;17847;31.524;74.366;2022-12-29T01:32:25;99301.81;;;13.44;78.00
31225;BME280;17847;31.524;74.366;2022-12-29T01:35:07;99294.53;;;13.45;78.50
31225;BME280;17847;31.524;74.366;2022-12-29T01:37:58;99294.59;;;13.70;78.36
31225;BME280;17847;31.524;74.366;2022-12-29T01:40:45;99292.13;;;13.62;77.14
31225;BME280;17847;31.524;74.366;2022-12-29T01:49:30;99290.78;;;13.78;77.42
31225;BME280;17847;31.524;74.366;2022-12-29T01:52:12;99287.72;;;13.93;76.66
31225;BME280;17847;31.524;74.366;2022-12-29T01:55:02;99294.28;;;13.78;76.88
31225;BME280;17847;31.524;74.366;2022-12-29T01:57:54;99304.03;;;13.79;78.05
31225;BME280;17847;31.524;74.366;2022-12-29T02:00:38;99293.34;;;13.66;77.38
31225;BME280;17847;31.524;74.366;2022-12-29T02:03:28;99294.50;;;13.51;77.75
31225;BME280;17847;31.524;74.366;2022-12-29T02:06:22;99302.03;;;13.43;78.46
31225;BME280;17847;31.524;74.366;2022-12-29T02:09:18;99316.19;;;13.31;79.00
31225;BME280;17847;31.524;74.366;2022-12-29T02:11:54;99311.38;;;13.40;79.29
31225;BME280;17847;31.524;74.366;2022-12-29T02:14:53;99299.28;;;13.49;79.12
31225;BME280;17847;31.524;74.366;2022-12-29T02:18:24;99310.34;;;13.41;79.27
31225;BME280;17847;31.524;74.366;2022-12-29T02:27:48;99332.19;;;13.26;80.13
31225;BME280;17847;31.524;74.366;2022-12-29T02:40:07;99341.97;;;13.59;79.00
31225;BME280;17847;31.524;74.366;2022-12-29T02:46:29;99347.44;;;14.03;77.92
31225;BME280;17847;31.524;74.366;2022-12-29T02:49:34;99333.25;;;14.07;77.54
31225;BME280;17847;31.524;74.366;2022-12-29T02:52:30;99337.03;;;14.25;77.72
31225;BME280;17847;31.524;74.366;2022-12-29T02:55:14;99343.16;;;14.14;77.30
31225;BME280;17847;31.524;74.366;2022-12-29T03:04:38;99342.53;;;13.93;78.80
31225;BME280;17847;31.524;74.366;2022-12-29T03:07:56;99351.13;;;14.08;78.01
31225;BME280;17847;31.524;74.366;2022-12-29T03:11:06;99363.22;;;14.24;77.74
31225;BME280;17847;31.524;74.366;2022-12-29T03:14:29;99368.06;;;14.41;77.22
31225;BME280;17847;31.524;74.366;2022-12-29T03:17:56;99382.03;;;14.56;76.73
31225;BME280;17847;31.524;74.366;2022-12-29T03:20:54;99391.63;;;14.52;76.32
31225;BME280;17847;31.524;74.366;2022-12-29T03:23:44;99403.16;;;14.84;76.21
31225;BME280;17847;31.524;74.366;2022-12-29T03:26:29;99419.28;;;14.73;75.61
31225;BME280;17847;31.524;74.366;2022-12-29T03:29:29;99415.09;;;14.58;76.37
31225;BME280;17847;31.524;74.366;2022-12-29T03:32:15;99419.25;;;14.54;76.98
31225;BME280;17847;31.524;74.366;2022-12-29T03:35:06;99439.69;;;14.68;76.32
31225;BME280;17847;31.524;74.366;2022-12-29T03:38:02;99455.47;;;14.46;77.60
31225;BME280;17847;31.524;74.366;2022-12-29T03:40:56;99454.56;;;14.78;76.57
31225;BME280;17847;31.524;74.366;2022-12-29T03:43:40;99448.59;;;14.94;76.68
31225;BME280;17847;31.524;74.366;2022-12-29T03:46:28;99445.94;;;14.87;76.09
31225;BME280;17847;31.524;74.366;2022-12-29T03:49:11;99446.19;;;15.04;76.83
31225;BME280;17847;31.524;74.366;2022-12-29T03:51:59;99443.09;;;15.01;76.97
31225;BME280;17847;31.524;74.366;2022-12-29T03:54:44;99446.19;;;15.04;77.65
31225;BME280;17847;31.524;74.366;2022-12-29T03:57:32;99455.03;;;15.30;76.49
31225;BME280;17847;31.524;74.366;2022-12-29T04:00:21;99455.63;;;15.32;77.41
31225;BME280;17847;31.524;74.366;2022-12-29T04:03:09;99452.91;;;15.51;76.75
31225;BME280;17847;31.524;74.366;2022-12-29T04:05:52;99453.97;;;15.50;76.71
31225;BME280;17847;31.524;74.366;2022-12-29T04:09:00;99456.91;;;15.48;77.53
31225;BME280;17847;31.524;74.366;2022-12-29T04:11:45;99467.06;;;15.83;76.54
31225;BME280;17847;31.524;74.366;2022-12-29T04:14:33;99452.59;;;15.77;76.43
31225;BME280;17847;31.524;74.366;2022-12-29T04:17:17;99451.31;;;15.61;76.13
31225;BME280;17847;31.524;74.366;2022-12-29T04:20:14;99453.81;;;15.63;78.10
31225;BME280;17847;31.524;74.366;2022-12-29T04:23:31;99444.16;;;15.67;77.81
31225;BME280;17847;31.524;74.366;2022-12-29T04:26:14;99465.66;;;15.80;77.16
31225;BME280;17847;31.524;74.366;2022-12-29T04:29:17;99462.88;;;15.99;77.36
31225;BME280;17847;31.524;74.366;2022-12-29T04:32:25;99469.06;;;16.18;76.99
31225;BME280;17847;31.524;74.366;2022-12-29T04:35:07;99484.56;;;16.53;75.64
31225;BME280;17847;31.524;74.366;2022-12-29T04:38:05;99488.09;;;16.53;75.40
31225;BME280;17847;31.524;74.366;2022-12-29T04:40:49;99485.25;;;16.36;74.73
31225;BME280;17847;31.524;74.366;2022-12-29T04:43:45;99481.28;;;16.74;73.28
31225;BME280;17847;31.524;74.366;2022-12-29T04:46:24;99476.22;;;17.01;72.67
31225;BME280;17847;31.524;74.366;2022-12-29T04:49:44;99487.44;;;16.93;72.27
31225;BME280;17847;31.524;74.366;2022-12-29T04:52:34;99476.00;;;16.91;70.64
31225;BME280;17847;31.524;74.366;2022-12-29T04:55:30;99464.44;;;16.96;71.01
31225;BME280;17847;31.524;74.366;2022-12-29T04:58:20;99466.63;;;17.22;71.36
31225;BME280;17847;31.524;74.366;2022-12-29T05:01:02;99453.28;;;17.33;70.53
31225;BME280;17847;31.524;74.366;2022-12-29T05:03:51;99445.88;;;17.28;67.68
31225;BME280;17847;31.524;74.366;2022-12-29T05:06:34;99433.97;;;17.29;67.17
31225;BME280;17847;31.524;74.366;2022-12-29T05:09:31;99430.00;;;17.49;69.00
31225;BME280;17847;31.524;74.366;2022-12-29T05:12:13;99422.44;;;17.79;68.67
31225;BME280;17847;31.524;74.366;2022-12-29T05:15:07;99416.13;;;17.62;65.43
31225;BME280;17847;31.524;74.366;2022-12-29T05:17:51;99415.84;;;18.04;63.81
31225;BME280;17847;31.524;74.366;2022-12-29T05:20:40;99411.38;;;18.32;64.97
31225;BME280;17847;31.524;74.366;2022-12-29T05:23:23;99409.47;;;18.49;64.46
31225;BME280;17847;31.524;74.366;2022-12-29T05:26:13;99401.25;;;18.44;64.58
31225;BME280;17847;31.524;74.366;2022-12-29T05:29:32;99403.22;;;18.49;64.95
31225;BME280;17847;31.524;74.366;2022-12-29T05:32:08;99410.13;;;18.23;63.30
31225;BME280;17847;31.524;74.366;2022-12-29T05:35:04;99423.00;;;18.27;64.40
31225;BME280;17847;31.524;74.366;2022-12-29T05:37:47;99422.91;;;18.39;65.36
31225;BME280;17847;31.524;74.366;2022-12-29T05:40:36;99410.63;;;18.53;63.49
31225;BME280;17847;31.524;74.366;2022-12-29T05:43:39;99410.63;;;18.53;65.90
31225;BME280;17847;31.524;74.366;2022-12-29T05:46:46;99410.78;;;18.47;66.97
31225;BME280;17847;31.524;74.366;2022-12-29T05:49:46;99419.38;;;18.38;68.57
31225;BME280;17847;31.524;74.366;2022-12-29T05:52:59;99416.66;;;18.38;69.74
31225;BME280;17847;31.524;74.366;2022-12-29T05:55:36;99410.03;;;18.51;67.20
31225;BME280;17847;31.524;74.366;2022-12-29T05:58:32;99397.44;;;18.45;69.68
31225;BME280;17847;31.524;74.366;2022-12-29T06:01:28;99402.88;;;18.45;69.52
31225;BME280;17847;31.524;74.366;2022-12-29T06:04:11;99422.09;;;18.38;70.15
31225;BME280;17847;31.524;74.366;2022-12-29T06:07:01;99423.56;;;18.29;70.22
31225;BME280;17847;31.524;74.366;2022-12-29T06:09:46;99432.72;;;18.40;65.04
31225;BME280;17847;31.524;74.366;2022-12-29T06:12:38;99436.75;;;18.37;67.68
31225;BME280;17847;31.524;74.366;2022-12-29T06:15:21;99459.03;;;18.23;69.26
31225;BME280;17847;31.524;74.366;2022-12-29T06:18:13;99467.94;;;18.18;67.07
31225;BME280;17847;31.524;74.366;2022-12-29T06:21:04;99487.19;;;18.16;64.22
31225;BME280;17847;31.524;74.366;2022-12-29T06:23:59;99508.81;;;18.11;64.45
31225;BME280;17847;31.524;74.366;2022-12-29T06:26:36;99495.41;;;18.05;63.25
31225;BME280;17847;31.524;74.366;2022-12-29T06:29:32;99490.16;;;18.15;62.39
31225;BME280;17847;31.524;74.366;2022-12-29T06:32:15;99481.59;;;18.06;60.50
31225;BME280;17847;31.524;74.366;2022-12-29T06:35:10;99479.63;;;18.18;60.55
31225;BME280;17847;31.524;74.366;2022-12-29T06:37:53;99487.69;;;18.13;62.82
31225;BME280;17847;31.524;74.366;2022-12-29T06:40:42;99494.94;;;18.25;63.03
31225;BME280;17847;31.524;74.366;2022-12-29T06:43:52;99493.31;;;18.24;63.25
31225;BME280;17847;31.524;74.366;2022-12-29T06:46:59;99477.75;;;18.19;65.05
31225;BME280;17847;31.524;74.366;2022-12-29T06:49:42;99477.44;;;18.04;63.77
31225;BME280;17847;31.524;74.366;2022-12-29T06:52:31;99475.34;;;18.23;63.81
31225;BME280;17847;31.524;74.366;2022-12-29T06:55:14;99478.25;;;18.33;64.40
31225;BME280;17847;31.524;74.366;2022-12-29T06:58:10;99474.28;;;18.24;66.01
31225;BME280;17847;31.524;74.366;2022-12-29T07:00:52;99467.94;;;18.18;67.64
31225;BME280;17847;31.524;74.366;2022-12-29T07:03:42;99469.56;;;18.02;68.70
31225;BME280;17847;31.524;74.366;2022-12-29T07:06:18;99474.81;;;17.92;69.67
31225;BME280;17847;31.524;74.366;2022-12-29T07:09:13;99478.50;;;17.86;70.83
31225;BME280;17847;31.524;74.366;2022-12-29T07:11:50;99489.19;;;17.64;71.65
31225;BME280;17847;31.524;74.366;2022-12-29T07:14:45;99494.28;;;17.60;72.61
31225;BME280;17847;31.524;74.366;2022-12-29T07:17:28;99487.34;;;17.52;72.31
31225;BME280;17847;31.524;74.366;2022-12-29T07:20:17;99487.44;;;17.46;72.75
31225;BME280;17847;31.524;74.366;2022-12-29T07:23:00;99473.31;;;17.44;72.72
31225;BME280;17847;31.524;74.366;2022-12-29T07:25:49;99467.41;;;17.47;73.25
31225;BME280;17847;31.524;74.366;2022-12-29T07:28:33;99455.97;;;17.45;72.04
31225;BME280;17847;31.524;74.366;2022-12-29T07:31:23;99444.78;;;17.41;73.13
31225;BME280;17847;31.524;74.366;2022-12-29T07:34:08;99435.09;;;17.45;74.07
31225;BME280;17847;31.524;74.366;2022-12-29T07:37:03;99434.84;;;17.47;75.23
31225;BME280;17847;31.524;74.366;2022-12-29T07:39:46;99432.44;;;17.21;74.79
31225;BME280;17847;31.524;74.366;2022-12-29T07:42:34;99416.25;;;17.27;75.31
31225;BME280;17847;31.524;74.366;2022-12-29T07:45:25;99403.38;;;16.93;74.86
31225;BME280;17847;31.524;74.366;2022-12-29T07:48:14;99389.94;;;17.27;74.77
31225;BME280;17847;31.524;74.366;2022-12-29T07:50:57;99388.31;;;17.26;75.35
31225;BME280;17847;31.524;74.366;2022-12-29T07:53:46;99403.38;;;16.93;76.56
31225;BME280;17847;31.524;74.366;2022-12-29T07:56:29;99417.88;;;16.99;76.74
31225;BME280;17847;31.524;74.366;2022-12-29T07:59:17;99403.97;;;16.24;79.13
31225;BME280;17847;31.524;74.366;2022-12-29T08:02:00;99388.41;;;16.20;78.61
31225;BME280;17847;31.524;74.366;2022-12-29T08:04:48;99388.66;;;16.54;77.92
31225;BME280;17847;31.524;74.366;2022-12-29T08:07:31;99382.19;;;16.67;77.72
31225;BME280;17847;31.524;74.366;2022-12-29T08:10:19;99382.75;;;16.69;77.42
31225;BME280;17847;31.524;74.366;2022-12-29T08:13:02;99370.00;;;16.81;77.57
31225;BME280;17847;31.524;74.366;2022-12-29T08:15:50;99352.81;;;16.63;77.94
31225;BME280;17847;31.524;74.366;2022-12-29T08:18:33;99346.47;;;16.58;78.03
31225;BME280;17847;31.524;74.366;2022-12-29T08:21:21;99361.44;;;16.84;77.67
31225;BME280;17847;31.524;74.366;2022-12-29T08:24:05;99351.63;;;16.95;77.76
31225;BME280;17847;31.524;74.366;2022-12-29T08:26:54;99349.19;;;16.46;77.72
31225;BME280;17847;31.524;74.366;2022-12-29T08:29:49;99332.66;;;16.83;77.87
31225;BME280;17847;31.524;74.366;2022-12-29T08:32:37;99330.88;;;16.77;76.47
31225;BME280;17847;31.524;74.366;2022-12-29T08:35:20;99336.09;;;17.19;76.22
31225;BME280;17847;31.524;74.366;2022-12-29T08:38:15;99337.25;;;17.23;74.25
31225;BME280;17847;31.524;74.366;2022-12-29T08:40:58;99337.34;;;17.28;74.21
31225;BME280;17847;31.524;74.366;2022-12-29T08:43:49;99331.44;;;17.31;73.67
31225;BME280;17847;31.524;74.366;2022-12-29T08:46:25;99309.81;;;17.36;74.48
31225;BME280;17847;31.524;74.366;2022-12-29T08:49:20;99325.75;;;17.33;74.29
31225;BME280;17847;31.524;74.366;2022-12-29T08:52:03;99314.13;;;17.49;73.58
31225;BME280;17847;31.524;74.366;2022-12-29T08:54:51;99303.03;;;17.51;74.40
31225;BME280;17847;31.524;74.366;2022-12-29T08:57:40;99307.50;;;17.28;72.65
31225;BME280;17847;31.524;74.366;2022-12-29T09:00:36;99309.50;;;17.50;73.46
31225;BME280;17847;31.524;74.366;2022-12-29T09:03:12;99307.38;;;17.52;73.29
31225;BME280;17847;31.524;74.366;2022-12-29T09:06:27;99304.25;;;17.43;73.37
31225;BME280;17847;31.524;74.366;2022-12-29T09:09:14;99308.53;;;17.39;73.73
31225;BME280;17847;31.524;74.366;2022-12-29T09:12:03;99315.13;;;17.43;73.66
31225;BME280;17847;31.524;74.366;2022-12-29T09:14:48;99303.06;;;17.22;74.53
31225;BME280;17847;31.524;74.366;2022-12-29T09:17:36;99282.53;;;16.97;74.65
31225;BME280;17847;31.524;74.366;2022-12-29T09:20:19;99288.59;;;16.76;75.75
31225;BME280;17847;31.524;74.366;2022-12-29T09:23:08;99303.31;;;16.92;76.48
31225;BME280;17847;31.524;74.366;2022-12-29T09:25:50;99304.34;;;16.91;76.13
31225;BME280;17847;31.524;74.366;2022-12-29T09:28:39;99290.22;;;16.77;76.85
31225;BME280;17847;31.524;74.366;2022-12-29T09:31:15;99279.13;;;16.90;76.95
31225;BME280;17847;31.524;74.366;2022-12-29T09:34:10;99273.03;;;16.83;76.18
31225;BME280;17847;31.524;74.366;2022-12-29T09:36:52;99285.72;;;16.94;76.19
31225;BME280;17847;31.524;74.366;2022-12-29T09:39:40;99291.59;;;17.03;75.68
31225;BME280;17847;31.524;74.366;2022-12-29T09:42:38;99298.41;;;17.06;75.87
31225;BME280;17847;31.524;74.366;2022-12-29T09:45:43;99292.16;;;17.05;75.93
31225;BME280;17847;31.524;74.366;2022-12-29T09:48:33;99272.59;;;17.03;75.05
31225;BME280;17847;31.524;74.366;2022-12-29T09:51:25;99269.44;;;16.94;76.06
31225;BME280;17847;31.524;74.366;2022-12-29T09:57:25;99264.59;;;16.56;77.69
31225;BME280;17847;31.524;74.366;2022-12-29T10:21:47;99223.84;;;15.98;77.43
31225;BME280;17847;31.524;74.366;2022-12-29T10:24:41;99238.06;;;16.17;77.48
31225;BME280;17847;31.524;74.366;2022-12-29T10:27:25;99240.19;;;16.15;76.72
31225;BME280;17847;31.524;74.366;2022-12-29T10:30:15;99231.91;;;16.34;76.28
31225;BME280;17847;31.524;74.366;2022-12-29T10:33:04;99227.31;;;16.34;76.05
31225;BME280;17847;31.524;74.366;2022-12-29T10:35:54;99239.91;;;16.40;76.78
31225;BME280;17847;31.524;74.366;2022-12-29T10:38:39;99240.03;;;16.34;75.94
31225;BME280;17847;31.524;74.366;2022-12-29T10:41:41;99240.13;;;16.39;74.49
31225;BME280;17847;31.524;74.366;2022-12-29T10:44:30;99260.78;;;16.28;74.40
31225;BME280;17847;31.524;74.366;2022-12-29T10:47:23;99264.69;;;16.20;72.62
31225;BME280;17847;31.524;74.366;2022-12-29T10:50:01;99221.84;;;15.94;72.12
31225;BME280;17847;31.524;74.366;2022-12-29T10:53:00;99167.56;;;16.00;72.03
31225;BME280;17847;31.524;74.366;2022-12-29T10:55:44;99196.00;;;16.27;72.85
31225;BME280;17847;31.524;74.366;2022-12-29T10:58:34;99205.09;;;16.09;74.25
31225;BME280;17847;31.524;74.366;2022-12-29T11:01:41;99186.03;;;16.15;74.92
31225;BME280;17847;31.524;74.366;2022-12-29T11:07:22;99169.13;;;15.84;77.12
31225;BME280;17847;31.524;74.366;2022-12-29T11:10:19;99171.25;;;15.82;75.21
31225;BME280;17847;31.524;74.366;2022-12-29T11:13:25;99177.47;;;15.59;77.22
31225;BME280;17847;31.524;74.366;2022-12-29T11:16:12;99171.22;;;15.59;78.06
31225;BME280;17847;31.524;74.366;2022-12-29T11:19:02;99158.41;;;15.78;76.75
31225;BME280;17847;31.524;74.366;2022-12-29T11:21:44;99164.44;;;15.92;76.11
31225;BME280;17847;31.524;74.366;2022-12-29T11:24:44;99161.81;;;15.97;76.50
31225;BME280;17847;31.524;74.366;2022-12-29T11:27:26;99169.69;;;15.98;77.42
31225;BME280;17847;31.524;74.366;2022-12-29T11:30:33;99172.06;;;15.83;78.05
31225;BME280;17847;31.524;74.366;2022-12-29T11:33:17;99174.75;;;15.95;78.40
31225;BME280;17847;31.524;74.366;2022-12-29T11:38:53;99191.69;;;16.02;78.05
31225;BME280;17847;31.524;74.366;2022-12-29T11:41:51;99179.72;;;15.98;77.79
31225;BME280;17847;31.524;74.366;2022-12-29T11:44:37;99173.94;;;15.94;77.85
31225;BME280;17847;31.524;74.366;2022-12-29T11:47:30;99170.75;;;15.85;78.26
31225;BME280;17847;31.524;74.366;2022-12-29T11:50:29;99176.97;;;15.62;79.15
31225;BME280;17847;31.524;74.366;2022-12-29T11:53:28;99173.59;;;15.91;78.04
31225;BME280;17847;31.524;74.366;2022-12-29T11:56:21;99181.72;;;15.91;78.12
31225;BME280;17847;31.524;74.366;2022-12-29T11:59:34;99179.34;;;15.94;79.00
31225;BME280;17847;31.524;74.366;2022-12-29T12:02:46;99190.44;;;15.81;78.17
31225;BME280;17847;31.524;74.366;2022-12-29T12:05:52;99195.00;;;16.04;77.66
31225;BME280;17847;31.524;74.366;2022-12-29T12:11:33;99192.91;;;15.82;76.19
31225;BME280;17847;31.524;74.366;2022-12-29T12:14:50;99203.94;;;15.93;76.83
31225;BME280;17847;31.524;74.366;2022-12-29T12:18:05;99204.06;;;15.98;76.95
31225;BME280;17847;31.524;74.366;2022-12-29T12:20:57;99209.13;;;16.06;77.17
31225;BME280;17847;31.524;74.366;2022-12-29T12:24:04;99207.59;;;15.98;76.76
31225;BME280;17847;31.524;74.366;2022-12-29T12:30:05;99215.47;;;16.00;75.97
31225;BME280;17847;31.524;74.366;2022-12-29T12:33:00;99213.94;;;16.04;75.74
31225;BME280;17847;31.524;74.366;2022-12-29T12:36:06;99207.25;;;15.95;76.03
31225;BME280;17847;31.524;74.366;2022-12-29T12:39:17;99213.34;;;16.02;76.11
31225;BME280;17847;31.524;74.366;2022-12-29T12:42:21;99216.53;;;15.99;77.15
31225;BME280;17847;31.524;74.366;2022-12-29T12:48:34;99227.94;;;16.01;75.89
31225;BME280;17847;31.524;74.366;2022-12-29T12:52:11;99226.69;;;15.92;75.57
31225;BME280;17847;31.524;74.366;2022-12-29T13:04:40;99256.31;;;15.87;77.44
31225;BME280;17847;31.524;74.366;2022-12-29T13:17:10;99285.63;;;16.01;76.54
31225;BME280;17847;31.524;74.366;2022-12-29T13:29:32;99311.03;;;16.12;73.92
31225;BME280;17847;31.524;74.366;2022-12-29T13:32:53;99325.44;;;16.24;73.29
31225;BME280;17847;31.524;74.366;2022-12-29T13:35:55;99326.25;;;16.13;74.22
31225;BME280;17847;31.524;74.366;2022-12-29T13:41:41;99348.50;;;16.15;74.42
31225;BME280;17847;31.524;74.366;2022-12-29T13:44:42;99343.78;;;16.22;74.18
31225;BME280;17847;31.524;74.366;2022-12-29T13:47:36;99347.69;;;16.15;74.51
31225;BME280;17847;31.524;74.366;2022-12-29T13:50:36;99345.78;;;16.15;74.99
31225;BME280;17847;31.524;74.366;2022-12-29T13:57:09;99350.13;;;16.16;74.91
31225;BME280;17847;31.524;74.366;2022-12-29T14:00:14;99362.25;;;15.90;75.11
31225;BME280;17847;31.524;74.366;2022-12-29T14:06:23;99361.81;;;16.05;75.34
31225;BME280;17847;31.524;74.366;2022-12-29T14:15:21;99330.81;;;16.01;75.42
31225;BME280;17847;31.524;74.366;2022-12-29T14:21:11;99363.28;;;15.77;75.86
31225;BME280;17847;31.524;74.366;2022-12-29T14:30:46;99363.91;;;15.00;78.04
31225;BME280;17847;31.524;74.366;2022-12-29T14:33:31;99353.31;;;14.80;77.54
31225;BME280;17847;31.524;74.366;2022-12-29T14:36:42;99362.53;;;15.10;76.64
31225;BME280;17847;31.524;74.366;2022-12-29T14:39:40;99382.53;;;14.72;78.34
31225;BME280;17847;31.524;74.366;2022-12-29T14:42:37;99381.31;;;14.42;79.40
31225;BME280;17847;31.524;74.366;2022-12-29T14:45:27;99377.41;;;14.20;80.17
31225;BME280;17847;31.524;74.366;2022-12-29T14:48:41;99382.22;;;14.11;81.11
31225;BME280;17847;31.524;74.366;2022-12-29T14:51:36;99394.53;;;14.07;81.43
31225;BME280;17847;31.524;74.366;2022-12-29T14:57:40;99416.88;;;14.39;80.28
31225;BME280;17847;31.524;74.366;2022-12-29T15:00:36;99417.22;;;14.24;80.23
31225;BME280;17847;31.524;74.366;2022-12-29T15:03:44;99416.31;;;14.05;80.77
31225;BME280;17847;31.524;74.366;2022-12-29T15:06:36;99427.59;;;13.96;80.63
31225;BME280;17847;31.524;74.366;2022-12-29T15:09:33;99434.75;;;13.83;80.74
31225;BME280;17847;31.524;74.366;2022-12-29T15:12:47;99454.09;;;14.05;79.44
31225;BME280;17847;31.524;74.366;2022-12-29T15:15:38;99456.97;;;13.85;79.54
31225;BME280;17847;31.524;74.366;2022-12-29T15:18:33;99446.31;;;13.90;79.51
31225;BME280;17847;31.524;74.366;2022-12-29T15:21:16;99456.59;;;14.07;79.45
31225;BME280;17847;31.524;74.366;2022-12-29T15:24:10;99459.00;;;14.22;79.14
31225;BME280;17847;31.524;74.366;2022-12-29T15:26:54;99466.53;;;14.38;78.80
31225;BME280;17847;31.524;74.366;2022-12-29T15:29:45;99473.97;;;14.18;78.70
31225;BME280;17847;31.524;74.366;2022-12-29T15:32:38;99471.03;;;14.19;78.82
31225;BME280;17847;31.524;74.366;2022-12-29T15:35:35;99472.25;;;14.23;78.71
31225;BME280;17847;31.524;74.366;2022-12-29T15:38:27;99472.03;;;14.25;78.49
31225;BME280;17847;31.524;74.366;2022-12-29T15:41:31;99475.31;;;14.02;78.97
31225;BME280;17847;31.524;74.366;2022-12-29T15:44:43;99473.59;;;14.07;79.05
31225;BME280;17847;31.524;74.366;2022-12-29T15:47:50;99474.44;;;14.08;78.83
31225;BME280;17847;31.524;74.366;2022-12-29T15:50:35;99478.59;;;14.36;78.37
31225;BME280;17847;31.524;74.366;2022-12-29T15:53:31;99473.47;;;13.96;79.56
31225;BME280;17847;31.524;74.366;2022-12-29T15:56:14;99473.66;;;14.01;79.71
31225;BME280;17847;31.524;74.366;2022-12-29T15:59:30;99473.78;;;13.81;79.19
31225;BME280;17847;31.524;74.366;2022-12-29T16:02:27;99479.72;;;14.21;78.39
31225;BME280;17847;31.524;74.366;2022-12-29T16:05:08;99485.38;;;13.81;79.70
31225;BME280;17847;31.524;74.366;2022-12-29T16:07:57;99490.19;;;13.34;80.69
31225;BME280;17847;31.524;74.366;2022-12-29T16:10:52;99503.22;;;13.24;81.91
31225;BME280;17847;31.524;74.366;2022-12-29T16:13:40;99506.81;;;13.69;80.53
31225;BME280;17847;31.524;74.366;2022-12-29T16:16:40;99500.28;;;13.90;79.50
31225;BME280;17847;31.524;74.366;2022-12-29T16:19:35;99496.69;;;13.65;79.92
31225;BME280;17847;31.524;74.366;2022-12-29T16:22:48;99485.03;;;13.71;80.64
31225;BME280;17847;31.524;74.366;2022-12-29T16:25:35;99483.94;;;13.27;82.28
31225;BME280;17847;31.524;74.366;2022-12-29T16:28:41;99461.44;;;13.60;81.12
31225;BME280;17847;31.524;74.366;2022-12-29T16:31:24;99456.44;;;13.11;82.38
31225;BME280;17847;31.524;74.366;2022-12-29T16:37:34;99489.94;;;13.42;80.94
31225;BME280;17847;31.524;74.366;2022-12-29T16:40:27;99513.03;;;13.11;81.68
31225;BME280;17847;31.524;74.366;2022-12-29T16:43:20;99513.78;;;13.39;80.52
31225;BME280;17847;31.524;74.366;2022-12-29T16:46:28;99519.38;;;13.89;79.26
31225;BME280;17847;31.524;74.366;2022-12-29T16:49:16;99516.91;;;13.87;78.32
31225;BME280;17847;31.524;74.366;2022-12-29T16:52:33;99525.28;;;14.11;77.78
31225;BME280;17847;31.524;74.366;2022-12-29T16:55:17;99512.41;;;14.13;77.26
31225;BME280;17847;31.524;74.366;2022-12-29T16:58:17;99489.63;;;14.34;77.02
31225;BME280;17847;31.524;74.366;2022-12-29T17:01:08;99480.31;;;13.66;78.52
31225;BME280;17847;31.524;74.366;2022-12-29T17:03:58;99476.81;;;13.52;79.58
31225;BME280;17847;31.524;74.366;2022-12-29T17:06:48;99483.59;;;13.10;80.56
31225;BME280;17847;31.524;74.366;2022-12-29T17:09:30;99481.59;;;13.57;78.83
31225;BME280;17847;31.524;74.366;2022-12-29T17:12:25;99479.22;;;13.74;78.35
31225;BME280;17847;31.524;74.366;2022-12-29T17:18:00;99485.63;;;13.35;78.87